sensor_id;sensor_type;location;lat;lon;timestamp;temperature;humidity
42145;DHT22;27813;43.516;11.890;2023-02-28T00:02:23;3.50;85.60
42145;DHT22;27813;43.516;11.890;2023-02-28T00:06:28;3.50;85.40
42145;DHT22;27813;43.516;11.890;2023-02-28T00:10:32;3.70;85.40
42145;DHT22;27813;43.516;11.890;2023-02-28T00:14:36;3.70;85.40
42145;DHT22;27813;43.516;11.890;2023-02-28T00:18:40;3.70;85.50
42145;DHT22;27813;43.516;11.890;2023-02-28T00:22:45;3.80;85.40
42145;DHT22;27813;43.516;11.890;2023-02-28T00:26:50;3.90;85.20
42145;DHT22;27813;43.516;11.890;2023-02-28T05:32:38;2.40;88.90
42145;DHT22;27813;43.516;11.890;2023-02-28T05:36:46;2.40;88.90
42145;DHT22;27813;43.516;11.890;2023-02-28T05:40:50;2.50;89.10
42145;DHT22;27813;43.516;11.890;2023-02-28T05:44:55;2.70;89.10
42145;DHT22;27813;43.516;11.890;2023-02-28T05:48:59;2.80;89.20
42145;DHT22;27813;43.516;11.890;2023-02-28T05:53:04;2.90;88.90
42145;DHT22;27813;43.516;11.890;2023-02-28T05:57:08;3.10;88.80
42145;DHT22;27813;43.516;11.890;2023-02-28T06:01:36;3.40;88.40
42145;DHT22;27813;43.516;11.890;2023-02-28T06:05:40;3.50;88.10
42145;DHT22;27813;43.516;11.890;2023-02-28T06:09:44;3.60;87.70
42145;DHT22;27813;43.516;11.890;2023-02-28T06:13:48;3.70;87.60
42145;DHT22;27813;43.516;11.890;2023-02-28T06:17:56;3.80;87.40
42145;DHT22;27813;43.516;11.890;2023-02-28T06:22:00;3.90;87.20
42145;DHT22;27813;43.516;11.890;2023-02-28T06:26:04;3.90;86.90
42145;DHT22;27813;43.516;11.890;2023-02-28T06:30:09;4.00;86.90
42145;DHT22;27813;43.516;11.890;2023-02-28T06:34:14;4.10;86.70
42145;DHT22;27813;43.516;11.890;2023-02-28T06:38:18;4.20;86.50
42145;DHT22;27813;43.516;11.890;2023-02-28T06:42:23;4.40;86.20
42145;DHT22;27813;43.516;11.890;2023-02-28T06:46:32;4.40;85.90
42145;DHT22;27813;43.516;11.890;2023-02-28T06:50:36;4.50;85.80
42145;DHT22;27813;43.516;11.890;2023-02-28T06:54:41;4.70;85.40
42145;DHT22;27813;43.516;11.890;2023-02-28T06:58:46;4.90;84.90
42145;DHT22;27813;43.516;11.890;2023-02-28T07:02:50;5.00;84.50
42145;DHT22;27813;43.516;11.890;2023-02-28T07:06:55;5.10;84.20
42145;DHT22;27813;43.516;11.890;2023-02-28T07:11:00;5.30;83.50
42145;DHT22;27813;43.516;11.890;2023-02-28T07:15:06;5.40;83.10
42145;DHT22;27813;43.516;11.890;2023-02-28T07:19:10;5.50;82.70
42145;DHT22;27813;43.516;11.890;2023-02-28T07:23:16;5.60;82.50
42145;DHT22;27813;43.516;11.890;2023-02-28T07:27:23;5.70;82.30
42145;DHT22;27813;43.516;11.890;2023-02-28T07:31:27;5.70;82.00
42145;DHT22;27813;43.516;11.890;2023-02-28T07:35:32;5.80;81.80
42145;DHT22;27813;43.516;11.890;2023-02-28T07:39:36;5.80;81.60
42145;DHT22;27813;43.516;11.890;2023-02-28T07:43:40;5.80;81.40
42145;DHT22;27813;43.516;11.890;2023-02-28T07:47:44;5.90;81.30
42145;DHT22;27813;43.516;11.890;2023-02-28T07:51:49;5.90;81.20
42145;DHT22;27813;43.516;11.890;2023-02-28T07:55:56;6.00;81.00
42145;DHT22;27813;43.516;11.890;2023-02-28T08:00:01;6.00;80.90
42145;DHT22;27813;43.516;11.890;2023-02-28T08:04:13;6.10;80.70
42145;DHT22;27813;43.516;11.890;2023-02-28T08:08:17;6.20;80.60
42145;DHT22;27813;43.516;11.890;2023-02-28T08:12:21;6.30;80.30
42145;DHT22;27813;43.516;11.890;2023-02-28T08:16:25;6.50;80.00
42145;DHT22;27813;43.516;11.890;2023-02-28T08:20:30;6.60;79.80
42145;DHT22;27813;43.516;11.890;2023-02-28T08:24:34;6.80;79.50
42145;DHT22;27813;43.516;11.890;2023-02-28T08:28:38;7.00;79.10
42145;DHT22;27813;43.516;11.890;2023-02-28T08:32:43;7.20;78.60
42145;DHT22;27813;43.516;11.890;2023-02-28T08:36:47;7.40;78.20
42145;DHT22;27813;43.516;11.890;2023-02-28T08:41:01;7.60;77.60
42145;DHT22;27813;43.516;11.890;2023-02-28T08:45:07;7.90;77.10
42145;DHT22;27813;43.516;11.890;2023-02-28T08:49:11;8.00;76.10
42145;DHT22;27813;43.516;11.890;2023-02-28T08:53:15;8.20;75.80
42145;DHT22;27813;43.516;11.890;2023-02-28T08:57:20;8.40;75.50
42145;DHT22;27813;43.516;11.890;2023-02-28T09:01:25;8.50;75.20
42145;DHT22;27813;43.516;11.890;2023-02-28T09:05:31;8.70;74.50
42145;DHT22;27813;43.516;11.890;2023-02-28T09:09:35;8.70;73.80
42145;DHT22;27813;43.516;11.890;2023-02-28T09:13:40;8.80;73.70
42145;DHT22;27813;43.516;11.890;2023-02-28T09:17:44;9.00;74.10
42145;DHT22;27813;43.516;11.890;2023-02-28T09:21:50;9.10;72.70
42145;DHT22;27813;43.516;11.890;2023-02-28T09:25:56;9.20;73.00
42145;DHT22;27813;43.516;11.890;2023-02-28T09:30:00;9.40;72.00
42145;DHT22;27813;43.516;11.890;2023-02-28T09:34:04;9.50;71.60
42145;DHT22;27813;43.516;11.890;2023-02-28T09:38:09;9.70;70.20
42145;DHT22;27813;43.516;11.890;2023-02-28T09:46:51;9.90;69.50
42145;DHT22;27813;43.516;11.890;2023-02-28T09:51:04;10.00;69.40
42145;DHT22;27813;43.516;11.890;2023-02-28T09:59:23;9.90;68.20
42145;DHT22;27813;43.516;11.890;2023-02-28T10:03:39;9.90;68.50
42145;DHT22;27813;43.516;11.890;2023-02-28T10:12:08;9.80;68.80
42145;DHT22;27813;43.516;11.890;2023-02-28T10:16:14;9.90;68.50
42145;DHT22;27813;43.516;11.890;2023-02-28T10:20:20;9.90;68.00
42145;DHT22;27813;43.516;11.890;2023-02-28T10:24:30;9.90;68.10
42145;DHT22;27813;43.516;11.890;2023-02-28T10:28:36;9.90;68.00
42145;DHT22;27813;43.516;11.890;2023-02-28T10:32:40;9.80;68.50
42145;DHT22;27813;43.516;11.890;2023-02-28T10:36:47;9.80;69.40
42145;DHT22;27813;43.516;11.890;2023-02-28T10:41:03;10.00;69.20
42145;DHT22;27813;43.516;11.890;2023-02-28T10:45:12;9.90;68.60
42145;DHT22;27813;43.516;11.890;2023-02-28T10:49:20;9.70;68.70
42145;DHT22;27813;43.516;11.890;2023-02-28T10:53:28;9.60;69.20
42145;DHT22;27813;43.516;11.890;2023-02-28T10:57:43;9.50;69.20
42145;DHT22;27813;43.516;11.890;2023-02-28T11:01:47;9.40;69.20
42145;DHT22;27813;43.516;11.890;2023-02-28T11:05:57;9.30;69.50
42145;DHT22;27813;43.516;11.890;2023-02-28T11:10:01;9.30;69.40
42145;DHT22;27813;43.516;11.890;2023-02-28T11:14:05;9.20;69.60
42145;DHT22;27813;43.516;11.890;2023-02-28T11:22:35;9.30;69.90
42145;DHT22;27813;43.516;11.890;2023-02-28T11:26:42;9.40;69.90
42145;DHT22;27813;43.516;11.890;2023-02-28T11:30:47;9.40;69.70
42145;DHT22;27813;43.516;11.890;2023-02-28T11:39:11;9.60;69.20
42145;DHT22;27813;43.516;11.890;2023-02-28T11:51:34;10.10;68.40
42145;DHT22;27813;43.516;11.890;2023-02-28T11:55:42;10.30;67.40
42145;DHT22;27813;43.516;11.890;2023-02-28T11:59:53;10.30;66.80
42145;DHT22;27813;43.516;11.890;2023-02-28T12:12:47;10.00;66.60
42145;DHT22;27813;43.516;11.890;2023-02-28T12:30:00;10.20;67.40
42145;DHT22;27813;43.516;11.890;2023-02-28T12:34:07;10.00;66.90
42145;DHT22;27813;43.516;11.890;2023-02-28T12:38:18;9.90;67.40
42145;DHT22;27813;43.516;11.890;2023-02-28T12:42:29;9.80;67.90
42145;DHT22;27813;43.516;11.890;2023-02-28T12:46:35;9.70;67.90
42145;DHT22;27813;43.516;11.890;2023-02-28T12:50:40;9.50;68.20
42145;DHT22;27813;43.516;11.890;2023-02-28T12:55:20;9.50;68.10
42145;DHT22;27813;43.516;11.890;2023-02-28T12:59:21;9.40;68.60
42145;DHT22;27813;43.516;11.890;2023-02-28T13:07:56;9.40;68.80
42145;DHT22;27813;43.516;11.890;2023-02-28T13:12:07;9.40;68.70
42145;DHT22;27813;43.516;11.890;2023-02-28T13:16:16;9.40;69.20
42145;DHT22;27813;43.516;11.890;2023-02-28T13:20:21;9.30;68.90
42145;DHT22;27813;43.516;11.890;2023-02-28T13:24:40;9.20;69.20
42145;DHT22;27813;43.516;11.890;2023-02-28T13:33:29;9.00;70.00
42145;DHT22;27813;43.516;11.890;2023-02-28T13:45:34;8.50;70.20
42145;DHT22;27813;43.516;11.890;2023-02-28T13:49:43;8.40;70.70
42145;DHT22;27813;43.516;11.890;2023-02-28T13:53:52;8.50;71.00
42145;DHT22;27813;43.516;11.890;2023-02-28T14:03:00;8.90;70.20
42145;DHT22;27813;43.516;11.890;2023-02-28T14:07:07;8.80;70.10
42145;DHT22;27813;43.516;11.890;2023-02-28T14:11:23;8.50;70.30
42145;DHT22;27813;43.516;11.890;2023-02-28T14:19:35;8.00;71.70
42145;DHT22;27813;43.516;11.890;2023-02-28T14:36:39;8.10;72.40
42145;DHT22;27813;43.516;11.890;2023-02-28T14:40:44;8.20;71.70
42145;DHT22;27813;43.516;11.890;2023-02-28T14:44:53;8.30;71.70
42145;DHT22;27813;43.516;11.890;2023-02-28T14:48:57;8.30;71.90
42145;DHT22;27813;43.516;11.890;2023-02-28T14:53:02;8.20;72.00
42145;DHT22;27813;43.516;11.890;2023-02-28T14:57:19;8.10;72.30
42145;DHT22;27813;43.516;11.890;2023-02-28T15:01:24;8.00;72.40
42145;DHT22;27813;43.516;11.890;2023-02-28T15:09:33;7.90;72.90
42145;DHT22;27813;43.516;11.890;2023-02-28T15:13:42;7.90;72.90
42145;DHT22;27813;43.516;11.890;2023-02-28T15:17:49;7.90;73.00
42145;DHT22;27813;43.516;11.890;2023-02-28T15:22:02;7.90;72.90
42145;DHT22;27813;43.516;11.890;2023-02-28T15:26:10;7.90;72.70
42145;DHT22;27813;43.516;11.890;2023-02-28T15:30:25;7.80;72.80
42145;DHT22;27813;43.516;11.890;2023-02-28T15:38:43;7.70;73.70
42145;DHT22;27813;43.516;11.890;2023-02-28T15:47:18;7.90;73.50
42145;DHT22;27813;43.516;11.890;2023-02-28T15:51:24;7.90;73.70
42145;DHT22;27813;43.516;11.890;2023-02-28T15:55:29;7.90;74.00
42145;DHT22;27813;43.516;11.890;2023-02-28T15:59:34;7.90;73.90
42145;DHT22;27813;43.516;11.890;2023-02-28T16:03:47;7.90;73.80
42145;DHT22;27813;43.516;11.890;2023-02-28T16:07:52;7.70;74.10
42145;DHT22;27813;43.516;11.890;2023-02-28T16:11:56;7.70;74.20
42145;DHT22;27813;43.516;11.890;2023-02-28T16:16:05;7.60;74.40
42145;DHT22;27813;43.516;11.890;2023-02-28T16:20:13;7.50;74.60
42145;DHT22;27813;43.516;11.890;2023-02-28T16:24:18;7.50;74.70
42145;DHT22;27813;43.516;11.890;2023-02-28T16:28:27;7.40;75.00
42145;DHT22;27813;43.516;11.890;2023-02-28T16:32:36;7.20;75.20
42145;DHT22;27813;43.516;11.890;2023-02-28T16:36:40;7.10;75.50
42145;DHT22;27813;43.516;11.890;2023-02-28T16:40:45;6.90;75.80
42145;DHT22;27813;43.516;11.890;2023-02-28T16:44:49;6.80;76.10
42145;DHT22;27813;43.516;11.890;2023-02-28T16:48:53;6.70;76.40
42145;DHT22;27813;43.516;11.890;2023-02-28T16:52:57;6.60;76.50
42145;DHT22;27813;43.516;11.890;2023-02-28T16:57:01;6.60;76.80
42145;DHT22;27813;43.516;11.890;2023-02-28T17:01:06;6.50;77.00
42145;DHT22;27813;43.516;11.890;2023-02-28T17:05:12;6.50;77.00
42145;DHT22;27813;43.516;11.890;2023-02-28T17:09:20;6.40;77.00
42145;DHT22;27813;43.516;11.890;2023-02-28T17:13:33;6.40;77.10
42145;DHT22;27813;43.516;11.890;2023-02-28T17:17:38;6.40;77.30
42145;DHT22;27813;43.516;11.890;2023-02-28T17:21:42;6.30;77.40
42145;DHT22;27813;43.516;11.890;2023-02-28T17:25:46;6.20;77.60
42145;DHT22;27813;43.516;11.890;2023-02-28T17:30:00;6.20;77.60
42145;DHT22;27813;43.516;11.890;2023-02-28T17:34:05;6.20;77.60
42145;DHT22;27813;43.516;11.890;2023-02-28T17:38:14;6.20;77.50
42145;DHT22;27813;43.516;11.890;2023-02-28T17:42:20;6.10;77.50
42145;DHT22;27813;43.516;11.890;2023-02-28T17:46:26;6.10;77.50
42145;DHT22;27813;43.516;11.890;2023-02-28T17:50:32;6.00;77.50
42145;DHT22;27813;43.516;11.890;2023-02-28T17:54:36;6.00;77.70
42145;DHT22;27813;43.516;11.890;2023-02-28T17:58:43;5.90;77.80
42145;DHT22;27813;43.516;11.890;2023-02-28T18:02:47;5.90;78.00
42145;DHT22;27813;43.516;11.890;2023-02-28T18:06:51;5.90;78.30
42145;DHT22;27813;43.516;11.890;2023-02-28T18:10:55;5.90;78.30
42145;DHT22;27813;43.516;11.890;2023-02-28T18:15:00;5.90;78.40
42145;DHT22;27813;43.516;11.890;2023-02-28T18:19:05;6.00;78.40
42145;DHT22;27813;43.516;11.890;2023-02-28T18:23:09;6.00;78.50
42145;DHT22;27813;43.516;11.890;2023-02-28T18:27:14;6.10;78.50
42145;DHT22;27813;43.516;11.890;2023-02-28T18:31:18;6.20;78.40
42145;DHT22;27813;43.516;11.890;2023-02-28T18:35:23;6.20;78.30
42145;DHT22;27813;43.516;11.890;2023-02-28T18:39:43;6.20;78.40
42145;DHT22;27813;43.516;11.890;2023-02-28T18:43:48;6.20;78.40
42145;DHT22;27813;43.516;11.890;2023-02-28T18:47:55;6.20;78.30
42145;DHT22;27813;43.516;11.890;2023-02-28T18:51:59;6.30;78.30
42145;DHT22;27813;43.516;11.890;2023-02-28T18:56:04;6.20;78.40
42145;DHT22;27813;43.516;11.890;2023-02-28T19:00:08;6.20;78.20
42145;DHT22;27813;43.516;11.890;2023-02-28T19:04:13;6.20;78.30
42145;DHT22;27813;43.516;11.890;2023-02-28T19:08:17;6.00;78.50
42145;DHT22;27813;43.516;11.890;2023-02-28T19:12:21;5.90;78.60
42145;DHT22;27813;43.516;11.890;2023-02-28T19:16:26;5.90;78.70
42145;DHT22;27813;43.516;11.890;2023-02-28T19:20:30;5.90;79.00
42145;DHT22;27813;43.516;11.890;2023-02-28T19:24:35;5.90;79.20
42145;DHT22;27813;43.516;11.890;2023-02-28T19:28:40;5.90;79.30
42145;DHT22;27813;43.516;11.890;2023-02-28T19:32:45;6.00;79.10
42145;DHT22;27813;43.516;11.890;2023-02-28T19:36:49;6.00;79.00
42145;DHT22;27813;43.516;11.890;2023-02-28T19:40:59;6.00;79.00
42145;DHT22;27813;43.516;11.890;2023-02-28T19:45:05;6.10;79.10
42145;DHT22;27813;43.516;11.890;2023-02-28T19:49:13;6.20;79.10
42145;DHT22;27813;43.516;11.890;2023-02-28T19:53:17;6.20;79.00
42145;DHT22;27813;43.516;11.890;2023-02-28T19:57:23;6.20;79.00
42145;DHT22;27813;43.516;11.890;2023-02-28T20:01:28;6.20;79.00
42145;DHT22;27813;43.516;11.890;2023-02-28T20:05:34;6.20;79.10
42145;DHT22;27813;43.516;11.890;2023-02-28T20:09:54;6.20;79.10
42145;DHT22;27813;43.516;11.890;2023-02-28T20:14:04;6.20;79.10
42145;DHT22;27813;43.516;11.890;2023-02-28T20:18:11;6.10;79.30
42145;DHT22;27813;43.516;11.890;2023-02-28T20:22:15;6.10;79.20
42145;DHT22;27813;43.516;11.890;2023-02-28T20:26:23;6.10;79.60
42145;DHT22;27813;43.516;11.890;2023-02-28T20:30:30;6.10;79.50
42145;DHT22;27813;43.516;11.890;2023-02-28T20:34:36;6.20;79.40
42145;DHT22;27813;43.516;11.890;2023-02-28T20:38:44;6.40;79.30
42145;DHT22;27813;43.516;11.890;2023-02-28T20:42:50;6.40;79.10
42145;DHT22;27813;43.516;11.890;2023-02-28T20:46:59;6.50;79.00
42145;DHT22;27813;43.516;11.890;2023-02-28T20:51:06;6.50;78.80
42145;DHT22;27813;43.516;11.890;2023-02-28T20:55:21;6.50;78.80
42145;DHT22;27813;43.516;11.890;2023-02-28T20:59:31;6.50;78.90
42145;DHT22;27813;43.516;11.890;2023-02-28T21:03:46;6.50;79.10
42145;DHT22;27813;43.516;11.890;2023-02-28T21:07:52;6.50;79.10
42145;DHT22;27813;43.516;11.890;2023-02-28T21:11:57;6.50;79.10
42145;DHT22;27813;43.516;11.890;2023-02-28T21:16:04;6.50;79.10
42145;DHT22;27813;43.516;11.890;2023-02-28T21:20:09;6.50;79.20
42145;DHT22;27813;43.516;11.890;2023-02-28T21:24:17;6.50;79.20
42145;DHT22;27813;43.516;11.890;2023-02-28T21:28:25;6.50;79.20
42145;DHT22;27813;43.516;11.890;2023-02-28T21:32:32;6.50;79.10
42145;DHT22;27813;43.516;11.890;2023-02-28T21:36:40;6.50;79.00
42145;DHT22;27813;43.516;11.890;2023-02-28T21:40:51;6.50;78.90
42145;DHT22;27813;43.516;11.890;2023-02-28T21:44:55;6.50;79.00
42145;DHT22;27813;43.516;11.890;2023-02-28T21:49:02;6.50;78.90
42145;DHT22;27813;43.516;11.890;2023-02-28T21:53:07;6.50;78.80
42145;DHT22;27813;43.516;11.890;2023-02-28T21:57:12;6.50;78.70
42145;DHT22;27813;43.516;11.890;2023-02-28T22:01:21;6.50;78.80
42145;DHT22;27813;43.516;11.890;2023-02-28T22:05:25;6.50;78.80
42145;DHT22;27813;43.516;11.890;2023-02-28T22:09:37;6.50;78.80
42145;DHT22;27813;43.516;11.890;2023-02-28T22:13:42;6.50;78.80
42145;DHT22;27813;43.516;11.890;2023-02-28T22:17:49;6.50;78.90
42145;DHT22;27813;43.516;11.890;2023-02-28T22:21:53;6.50;78.90
42145;DHT22;27813;43.516;11.890;2023-02-28T22:26:00;6.50;78.90
42145;DHT22;27813;43.516;11.890;2023-02-28T22:30:07;6.30;79.60
42145;DHT22;27813;43.516;11.890;2023-02-28T22:34:11;5.90;80.80
42145;DHT22;27813;43.516;11.890;2023-02-28T22:38:16;5.80;81.70
42145;DHT22;27813;43.516;11.890;2023-02-28T22:42:20;5.70;82.20
42145;DHT22;27813;43.516;11.890;2023-02-28T22:46:24;5.70;82.70
42145;DHT22;27813;43.516;11.890;2023-02-28T22:50:29;5.70;82.80
42145;DHT22;27813;43.516;11.890;2023-02-28T22:54:33;5.80;82.80
42145;DHT22;27813;43.516;11.890;2023-02-28T22:58:37;5.90;82.70
42145;DHT22;27813;43.516;11.890;2023-02-28T23:02:42;5.90;82.60
42145;DHT22;27813;43.516;11.890;2023-02-28T23:06:46;6.00;82.40
42145;DHT22;27813;43.516;11.890;2023-02-28T23:10:51;6.00;82.50
42145;DHT22;27813;43.516;11.890;2023-02-28T23:14:55;5.90;82.60
42145;DHT22;27813;43.516;11.890;2023-02-28T23:19:00;5.90;82.70
42145;DHT22;27813;43.516;11.890;2023-02-28T23:23:04;5.90;82.80
42145;DHT22;27813;43.516;11.890;2023-02-28T23:27:09;5.80;82.80
42145;DHT22;27813;43.516;11.890;2023-02-28T23:31:13;5.60;83.50
42145;DHT22;27813;43.516;11.890;2023-02-28T23:35:18;5.40;84.70
42145;DHT22;27813;43.516;11.890;2023-02-28T23:39:22;5.10;85.80
42145;DHT22;27813;43.516;11.890;2023-02-28T23:43:27;5.00;86.70
42145;DHT22;27813;43.516;11.890;2023-02-28T23:47:31;4.90;87.50
42145;DHT22;27813;43.516;11.890;2023-02-28T23:51:35;4.90;88.20
42145;DHT22;27813;43.516;11.890;2023-02-28T23:55:46;4.90;88.70
42145;DHT22;27813;43.516;11.890;2023-02-28T23:59:51;4.90;89.10
